Time;durP1;ratioP1;P1;durP2;ratioP2;P2;SDS_P1;SDS_P2;PMS_P1;PMS_P2;Temp;Humidity;BMP_temperature;BMP_pressure;BME280_temperature;BME280_humidity;BME280_pressure;Samples;Min_cycle;Max_cycle;Signal;HPM_P1;HPM_P2
2023/09/16 00:01:33;;;;;;;;;7.33;7.00;;;;;22.42;49.86;100662.56;5051667;28;45760;-67
2023/09/16 00:04:00;;;;;;;;;7.00;7.00;;;;;22.48;49.69;100672.97;5048631;28;45424;-67
2023/09/16 00:06:25;;;;;;;;;8.33;8.33;;;;;22.41;49.82;100650.19;5066334;28;45433;-67
2023/09/16 00:08:51;;;;;;;;;7.33;6.67;;;;;22.42;49.97;100652.78;5053251;28;45364;-67
2023/09/16 00:11:18;;;;;;;;;9.67;6.67;;;;;22.38;50.31;100661.88;5049781;28;45792;-67
2023/09/16 00:13:44;;;;;;;;;8.33;6.00;;;;;22.42;50.18;100662.56;5070943;27;45369;-67
2023/09/16 00:16:12;;;;;;;;;8.00;7.67;;;;;22.44;50.40;100661.56;5068635;27;45526;-67
2023/09/16 00:18:38;;;;;;;;;9.00;9.00;;;;;22.33;50.66;100658.56;5074267;27;45452;-67
2023/09/16 00:21:04;;;;;;;;;9.00;8.00;;;;;22.40;50.68;100659.13;5074889;27;45464;-67
2023/09/16 00:23:31;;;;;;;;;11.33;6.67;;;;;22.29;50.73;100650.78;5069775;27;45812;-68
2023/09/16 00:25:57;;;;;;;;;9.67;9.33;;;;;22.22;50.99;100653.72;5063755;27;45405;-67
2023/09/16 00:28:25;;;;;;;;;8.00;6.67;;;;;22.22;51.04;100651.06;5073032;27;46416;-68
2023/09/16 00:30:51;;;;;;;;;10.67;7.67;;;;;22.26;51.38;100661.56;5070049;27;45544;-67
2023/09/16 00:33:17;;;;;;;;;7.67;6.33;;;;;22.14;51.34;100647.00;5074950;27;45381;-68
2023/09/16 00:35:43;;;;;;;;;8.67;6.00;;;;;22.15;51.35;100640.75;5068807;28;45528;-67
2023/09/16 00:38:09;;;;;;;;;6.67;6.67;;;;;22.05;51.39;100615.44;5061652;27;46293;-66
2023/09/16 00:40:36;;;;;;;;;7.33;7.00;;;;;22.20;51.65;100660.03;5056234;28;45519;-69
2023/09/16 00:43:02;;;;;;;;;8.00;7.67;;;;;22.15;51.42;100641.59;5073996;28;45404;-72
2023/09/16 00:45:28;;;;;;;;;9.00;7.00;;;;;22.18;51.86;100646.78;5077421;27;45288;-69
2023/09/16 00:47:54;;;;;;;;;7.00;6.00;;;;;22.26;51.67;100648.25;5074910;27;46440;-69
2023/09/16 00:50:20;;;;;;;;;8.00;7.33;;;;;22.21;51.87;100640.50;5076931;28;45349;-70
2023/09/16 00:52:50;;;;;;;;;8.33;8.33;;;;;22.23;52.06;100638.59;5076775;27;45350;-70
2023/09/16 00:55:16;;;;;;;;;8.00;6.67;;;;;22.19;51.84;100637.84;5078399;27;45394;-71
2023/09/16 00:57:46;;;;;;;;;8.67;8.67;;;;;22.22;52.13;100636.88;5067356;27;45470;-69
2023/09/16 01:00:12;;;;;;;;;6.67;6.67;;;;;22.20;52.07;100644.94;5078971;27;45555;-68
2023/09/16 01:02:38;;;;;;;;;12.00;8.33;;;;;22.13;52.10;100635.47;5080484;27;45365;-68
2023/09/16 01:05:05;;;;;;;;;9.33;7.33;;;;;22.11;52.17;100633.81;5080183;27;45562;-69
2023/09/16 01:07:31;;;;;;;;;9.67;8.33;;;;;22.09;52.12;100633.00;5071356;27;46314;-69
2023/09/16 01:09:57;;;;;;;;;10.33;8.00;;;;;22.15;52.35;100640.75;5080211;28;45403;-69
2023/09/16 01:12:22;;;;;;;;;6.67;6.67;;;;;22.08;52.56;100644.63;5079405;27;45367;-70
2023/09/16 01:14:48;;;;;;;;;7.00;7.00;;;;;21.93;52.82;100624.91;5062203;27;45401;-70
2023/09/16 01:17:34;;;;;;;;;7.33;6.33;;;;;22.05;52.60;100632.31;5063537;28;46149;-70
2023/09/16 01:20:06;;;;;;;;;9.33;8.00;;;;;22.11;52.91;100636.47;5080116;28;45322;-69
2023/09/16 01:22:35;;;;;;;;;10.33;7.33;;;;;22.06;52.63;100627.84;5079694;27;45525;-68
2023/09/16 01:25:06;;;;;;;;;8.33;7.67;;;;;22.04;52.73;100619.91;5071946;28;45462;-70
2023/09/16 01:27:32;;;;;;;;;8.67;7.67;;;;;21.93;53.10;100615.09;5068578;27;46330;-70
2023/09/16 01:29:59;;;;;;;;;7.33;7.00;;;;;22.05;52.91;100636.78;5059663;27;45348;-70
2023/09/16 01:32:31;;;;;;;;;5.67;5.67;;;;;21.98;53.18;100617.53;5060837;27;45461;-70
2023/09/16 01:35:04;;;;;;;;;8.33;6.33;;;;;21.98;53.15;100623.72;5060259;27;45520;-69
2023/09/16 01:37:31;;;;;;;;;6.67;6.67;;;;;22.02;53.08;100632.47;5065564;27;46228;-69
2023/09/16 01:39:59;;;;;;;;;8.67;6.33;;;;;22.01;53.08;100625.38;5058995;27;45377;-69
2023/09/16 01:42:30;;;;;;;;;9.00;8.00;;;;;21.94;53.14;100613.28;5060182;27;45638;-69
2023/09/16 01:44:56;;;;;;;;;6.33;6.33;;;;;22.07;53.31;100626.88;5079597;28;45510;-70
2023/09/16 01:47:22;;;;;;;;;7.33;7.33;;;;;21.85;53.54;100614.56;5079992;27;45984;-70
2023/09/16 01:49:47;;;;;;;;;11.33;9.33;;;;;21.92;53.64;100632.00;5079344;28;45385;-69
2023/09/16 01:52:16;;;;;;;;;10.00;8.00;;;;;21.86;53.74;100616.31;5080378;28;45420;-69
2023/09/16 01:54:42;;;;;;;;;5.67;5.67;;;;;21.89;53.68;100610.81;5079429;28;45428;-70
2023/09/16 01:57:07;;;;;;;;;8.33;7.33;;;;;21.89;54.00;100610.81;5078713;27;45555;-71
2023/09/16 01:59:39;;;;;;;;;8.33;8.33;;;;;21.74;54.12;100583.09;5079416;27;45478;-71
2023/09/16 02:02:04;;;;;;;;;9.67;7.67;;;;;21.91;53.79;100611.63;5079028;27;45434;-69
2023/09/16 02:04:30;;;;;;;;;8.33;7.00;;;;;21.90;53.87;100609.00;5081515;27;45778;-70
2023/09/16 02:06:56;;;;;;;;;9.00;7.33;;;;;21.88;54.01;100601.13;5081023;28;45943;-70
2023/09/16 02:09:21;;;;;;;;;9.00;9.00;;;;;21.91;53.56;100597.44;5080570;28;45444;-70
2023/09/16 02:11:47;;;;;;;;;9.00;6.33;;;;;21.94;53.80;100598.13;5079097;27;45378;-70
2023/09/16 02:14:15;;;;;;;;;7.67;6.33;;;;;21.84;53.54;100586.19;5079064;28;45337;-68
2023/09/16 02:16:41;;;;;;;;;8.00;7.67;;;;;21.81;54.52;100600.53;5066363;28;46035;-69
2023/09/16 02:19:07;;;;;;;;;7.67;7.33;;;;;21.66;54.19;100581.72;5077793;28;45558;-69
2023/09/16 02:21:32;;;;;;;;;11.00;8.67;;;;;21.73;54.19;100591.16;5079163;28;45211;-70
2023/09/16 02:23:58;;;;;;;;;10.33;7.33;;;;;21.78;54.43;100597.13;5080497;28;45241;-70
2023/09/16 02:26:24;;;;;;;;;7.67;5.67;;;;;21.57;54.66;100581.22;5080055;28;46264;-68
2023/09/16 02:28:49;;;;;;;;;8.00;8.00;;;;;21.62;54.92;100593.44;5079524;28;45476;-69
2023/09/16 02:31:16;;;;;;;;;7.67;7.67;;;;;21.39;55.19;100568.69;5078655;28;45327;-69
2023/09/16 02:33:41;;;;;;;;;8.67;8.67;;;;;21.41;55.33;100590.84;5078513;28;45287;-69
2023/09/16 02:36:07;;;;;;;;;10.67;9.00;;;;;21.46;55.22;100599.50;5079505;28;46097;-70
2023/09/16 02:38:33;;;;;;;;;11.00;10.33;;;;;21.50;55.26;100598.41;5079791;28;45744;-69
2023/09/16 02:41:03;;;;;;;;;8.33;8.33;;;;;21.46;55.24;100578.16;5078769;28;45504;-71
2023/09/16 02:43:29;;;;;;;;;10.00;8.33;;;;;21.44;55.54;100587.16;5078794;28;45297;-70
2023/09/16 02:45:58;;;;;;;;;9.00;9.00;;;;;21.18;55.90;100557.22;5078151;28;45504;-70
2023/09/16 02:48:24;;;;;;;;;11.33;8.67;;;;;21.41;55.56;100584.66;5077225;28;45587;-69
2023/09/16 02:50:49;;;;;;;;;8.67;8.33;;;;;21.36;55.38;100576.84;5078865;28;45382;-70
2023/09/16 02:53:18;;;;;;;;;9.67;8.00;;;;;21.41;55.45;100584.66;5061839;27;45484;-69
2023/09/16 02:55:43;;;;;;;;;8.00;8.00;;;;;21.31;55.69;100568.19;5058380;27;46714;-68
2023/09/16 02:58:09;;;;;;;;;9.67;7.67;;;;;21.42;55.72;100578.38;5058087;27;45269;-69
2023/09/16 03:00:35;;;;;;;;;11.00;10.67;;;;;21.22;56.51;100576.59;5058184;27;45433;-69
2023/09/16 03:03:03;;;;;;;;;7.67;6.67;;;;;21.29;56.18;100583.38;5058023;28;45476;-70
2023/09/16 03:05:29;;;;;;;;;13.00;9.33;;;;;21.22;56.39;100566.81;5073494;27;45389;-69
2023/09/16 03:07:55;;;;;;;;;9.67;8.33;;;;;21.31;56.03;100576.19;5077809;27;45381;-69
2023/09/16 03:10:20;;;;;;;;;9.67;8.67;;;;;21.25;56.00;100555.16;5065015;27;45326;-69
2023/09/16 03:12:46;;;;;;;;;12.67;9.67;;;;;21.30;55.89;100555.78;5078166;27;45476;-69
2023/09/16 03:15:11;;;;;;;;;8.33;7.33;;;;;21.33;56.46;100571.63;5077933;27;46074;-69
2023/09/16 03:17:37;;;;;;;;;10.67;9.67;;;;;21.29;56.76;100570.06;5063538;28;45475;-69
2023/09/16 03:20:02;;;;;;;;;8.00;8.00;;;;;21.14;56.89;100548.50;5079269;28;46265;-70
2023/09/16 03:22:28;;;;;;;;;6.00;5.33;;;;;21.24;56.58;100564.09;5078941;27;45409;-70
2023/09/16 03:24:54;;;;;;;;;10.33;8.67;;;;;21.31;56.26;100557.53;5078971;28;46190;-70
2023/09/16 03:27:19;;;;;;;;;10.67;7.67;;;;;21.31;56.70;100569.06;5078842;28;45510;-71
2023/09/16 03:29:45;;;;;;;;;7.33;6.33;;;;;21.23;56.70;100557.88;5078039;28;45600;-70
2023/09/16 03:32:10;;;;;;;;;9.00;8.00;;;;;21.17;56.86;100543.03;5078431;28;45379;-70
2023/09/16 03:34:36;;;;;;;;;6.33;5.33;;;;;21.18;56.69;100543.91;5078654;28;45468;-70
2023/09/16 03:37:01;;;;;;;;;9.33;9.33;;;;;21.23;56.96;100568.50;5079163;28;45369;-69
2023/09/16 03:39:27;;;;;;;;;8.67;8.67;;;;;21.02;57.44;100559.69;5078686;28;45314;-69
2023/09/16 03:41:52;;;;;;;;;9.00;8.00;;;;;20.98;57.46;100552.78;5077578;28;45354;-70
2023/09/16 03:44:19;;;;;;;;;6.67;6.67;;;;;21.02;57.19;100534.84;5077133;28;46127;-69
2023/09/16 03:46:45;;;;;;;;;8.33;8.00;;;;;21.26;57.10;100562.19;5072963;27;45477;-69
2023/09/16 03:49:10;;;;;;;;;8.50;7.50;;;;;21.25;57.28;100561.31;5071650;28;45439;-70
2023/09/16 03:51:38;;;;;;;;;7.33;6.00;;;;;21.00;57.30;100545.59;5077843;28;45373;-69
2023/09/16 03:54:06;;;;;;;;;9.33;9.33;;;;;21.08;57.60;100570.06;5077223;28;45368;-70
2023/09/16 03:56:33;;;;;;;;;10.00;9.00;;;;;21.13;57.07;100553.91;5075535;28;45325;-70
2023/09/16 03:58:58;;;;;;;;;9.00;7.00;;;;;21.20;57.45;100544.69;5075651;27;45518;-70
2023/09/16 04:01:24;;;;;;;;;11.33;11.33;;;;;21.22;57.48;100541.97;5077527;28;45393;-68
2023/09/16 04:03:50;;;;;;;;;10.00;8.67;;;;;21.18;57.70;100549.22;5077321;28;46217;-70
2023/09/16 04:06:15;;;;;;;;;10.33;8.00;;;;;21.12;57.35;100531.72;5077270;27;45402;-68
2023/09/16 04:08:41;;;;;;;;;6.33;6.33;;;;;21.23;57.08;100538.34;5077619;28;45546;-69
2023/09/16 04:11:07;;;;;;;;;9.00;8.33;;;;;21.26;57.87;100536.44;5077812;28;45422;-69
2023/09/16 04:13:33;;;;;;;;;10.33;10.00;;;;;21.05;57.98;100526.75;5076905;28;45357;-70
2023/09/16 04:15:58;;;;;;;;;8.00;6.33;;;;;21.12;58.01;100544.19;5075360;28;45380;-70
2023/09/16 04:18:24;;;;;;;;;11.00;8.67;;;;;21.18;57.75;100549.22;5077412;28;45319;-70
2023/09/16 04:20:55;;;;;;;;;11.33;8.00;;;;;21.13;57.73;100541.44;5073606;28;45530;-69
2023/09/16 04:23:21;;;;;;;;;8.67;8.67;;;;;21.09;58.19;100534.50;5068145;28;45429;-69
2023/09/16 04:25:53;;;;;;;;;9.33;8.33;;;;;20.94;58.52;100516.56;5076837;28;45483;-69
2023/09/16 04:28:19;;;;;;;;;9.67;9.33;;;;;20.89;58.35;100514.13;5076862;27;45463;-68
2023/09/16 04:30:50;;;;;;;;;10.00;8.00;;;;;20.95;58.64;100526.28;5075598;28;45483;-69
2023/09/16 04:33:17;;;;;;;;;11.67;11.33;;;;;20.92;58.80;100532.59;5076246;28;46139;-69
2023/09/16 04:35:47;;;;;;;;;10.67;8.67;;;;;20.83;58.76;100521.50;5076638;28;45969;-70
2023/09/16 04:38:16;;;;;;;;;12.00;10.67;;;;;20.82;58.71;100507.34;5076986;28;45483;-69
2023/09/16 04:40:43;;;;;;;;;10.00;8.67;;;;;20.45;59.10;100462.81;5077238;28;45443;-71
2023/09/16 04:43:09;;;;;;;;;11.33;9.00;;;;;20.80;59.17;100537.63;5076869;28;45978;-70
2023/09/16 04:45:35;;;;;;;;;12.67;11.00;;;;;20.94;58.31;100532.53;5076716;28;45549;-69
2023/09/16 04:48:01;;;;;;;;;12.00;10.00;;;;;20.87;58.26;100533.75;5075151;28;45464;-69
2023/09/16 04:50:28;;;;;;;;;10.00;10.00;;;;;20.78;58.29;100505.72;5072272;28;45562;-69
2023/09/16 04:52:55;;;;;;;;;12.00;9.00;;;;;20.82;59.15;100543.75;5073091;28;45362;-70
2023/09/16 04:55:21;;;;;;;;;12.00;9.00;;;;;20.26;59.34;100481.34;5073216;28;45361;-70
2023/09/16 04:57:47;;;;;;;;;10.00;10.00;;;;;20.58;59.14;100527.03;5052420;28;45457;-68
2023/09/16 05:00:12;;;;;;;;;15.00;11.00;;;;;20.61;59.38;100526.91;5077726;27;45448;-69
2023/09/16 05:02:42;;;;;;;;;10.67;10.00;;;;;20.52;59.69;100529.00;5075933;28;45487;-70
2023/09/16 05:05:07;;;;;;;;;13.67;10.33;;;;;20.62;60.01;100537.50;5069151;28;45562;-69
2023/09/16 05:07:33;;;;;;;;;15.00;11.33;;;;;20.49;60.20;100541.56;5062976;28;45393;-71
2023/09/16 05:09:59;;;;;;;;;12.00;12.00;;;;;20.35;60.48;100528.81;5074044;28;45504;-69
2023/09/16 05:12:24;;;;;;;;;13.00;11.00;;;;;20.31;60.30;100528.09;5077377;28;46199;-70
2023/09/16 05:14:50;;;;;;;;;10.00;9.67;;;;;20.37;60.38;100558.88;5077206;28;45549;-69
2023/09/16 05:17:16;;;;;;;;;11.00;11.00;;;;;20.34;60.69;100554.56;5061685;27;45421;-68
2023/09/16 05:19:42;;;;;;;;;12.00;11.00;;;;;20.26;60.62;100562.00;5077490;28;45391;-70
2023/09/16 05:22:07;;;;;;;;;14.33;11.33;;;;;20.24;60.65;100561.19;5077753;28;45347;-69
2023/09/16 05:24:33;;;;;;;;;12.33;11.67;;;;;20.27;60.71;100558.41;5077745;27;45410;-70
2023/09/16 05:26:59;;;;;;;;;13.33;11.67;;;;;20.21;61.41;100566.63;5076214;28;45551;-69
2023/09/16 05:29:25;;;;;;;;;14.00;12.00;;;;;19.95;61.54;100543.75;5067060;27;45421;-69
2023/09/16 05:31:51;;;;;;;;;12.67;10.67;;;;;20.10;61.03;100553.78;5056288;27;46122;-70
2023/09/16 05:34:17;;;;;;;;;11.00;11.00;;;;;20.23;60.96;100564.78;5055145;28;45544;-70
2023/09/16 05:36:42;;;;;;;;;12.33;9.67;;;;;20.23;61.18;100570.09;5055931;28;46794;-70
2023/09/16 05:39:08;;;;;;;;;13.67;11.33;;;;;20.20;61.29;100564.91;5054226;28;45658;-69
2023/09/16 05:41:35;;;;;;;;;12.67;10.33;;;;;20.14;61.36;100565.13;5058457;27;46442;-70
2023/09/16 05:44:01;;;;;;;;;13.00;12.00;;;;;20.16;61.48;100562.44;5060147;27;45390;-69
2023/09/16 05:46:27;;;;;;;;;15.67;11.33;;;;;20.16;61.12;100560.63;5059170;27;45323;-71
2023/09/16 05:49:06;;;;;;;;;9.00;9.00;;;;;20.26;61.41;100574.41;5059095;27;45463;-70
2023/09/16 05:51:32;;;;;;;;;10.67;10.67;;;;;20.20;61.19;100564.03;5058676;27;46763;-69
2023/09/16 05:53:57;;;;;;;;;12.33;11.67;;;;;20.29;61.29;100574.31;5059854;27;45889;-69
2023/09/16 05:56:23;;;;;;;;;11.00;9.67;;;;;20.26;61.11;100563.78;5060187;27;45366;-69
2023/09/16 05:58:49;;;;;;;;;19.33;13.67;;;;;20.47;60.95;100581.50;5072408;27;45501;-70
2023/09/16 06:01:15;;;;;;;;;14.67;12.00;;;;;20.46;61.15;100589.56;5060000;27;45388;-68
2023/09/16 06:03:40;;;;;;;;;12.33;10.67;;;;;20.45;60.90;100590.50;5058388;27;45436;-68
2023/09/16 06:06:06;;;;;;;;;11.00;9.67;;;;;20.46;60.66;100586.91;5058728;27;45564;-69
2023/09/16 06:08:32;;;;;;;;;11.00;10.00;;;;;20.49;60.59;100569.00;5060005;27;46142;-68
2023/09/16 06:10:57;;;;;;;;;9.00;9.00;;;;;20.59;60.76;100572.19;5058703;27;46042;-69
2023/09/16 06:13:23;;;;;;;;;9.67;9.33;;;;;20.71;60.27;100570.81;5058661;27;45788;-69
2023/09/16 06:15:49;;;;;;;;;12.00;10.00;;;;;20.94;59.65;100593.78;5061255;27;46766;-69
2023/09/16 06:18:15;;;;;;;;;12.00;10.00;;;;;21.07;59.40;100594.09;5071201;28;45748;-68
2023/09/16 06:20:41;;;;;;;;;11.00;9.33;;;;;21.15;59.36;100602.63;5078775;27;46655;-71
2023/09/16 06:23:07;;;;;;;;;14.33;11.33;;;;;21.11;59.03;100590.38;5078430;28;45516;-69
2023/09/16 06:25:33;;;;;;;;;11.67;10.67;;;;;21.06;59.33;100585.25;5080021;27;45524;-70
2023/09/16 06:27:59;;;;;;;;;11.00;10.00;;;;;21.09;59.04;100598.41;5080383;27;45388;-69
2023/09/16 06:30:25;;;;;;;;;12.00;9.00;;;;;21.09;59.44;100595.75;5078403;28;45571;-70
2023/09/16 06:32:55;;;;;;;;;12.00;11.33;;;;;21.18;59.65;100618.47;5078525;27;45708;-70
2023/09/16 06:35:21;;;;;;;;;12.67;10.00;;;;;21.13;59.26;100613.34;5078571;27;45349;-70
2023/09/16 06:37:47;;;;;;;;;14.33;12.67;;;;;21.17;59.03;100622.06;5078824;28;45563;-70
2023/09/16 06:40:12;;;;;;;;;12.67;11.33;;;;;21.04;59.43;100605.75;5078445;28;46124;-69
2023/09/16 06:42:38;;;;;;;;;13.33;10.00;;;;;21.08;59.40;100610.00;5078383;28;45404;-69
2023/09/16 06:45:04;;;;;;;;;10.67;9.67;;;;;21.13;59.36;100605.34;5078618;28;45463;-70
2023/09/16 06:47:29;;;;;;;;;12.00;11.33;;;;;21.24;59.12;100617.34;5077330;27;45525;-70
2023/09/16 06:49:56;;;;;;;;;12.67;12.67;;;;;21.08;59.45;100606.50;5077966;28;45430;-70
2023/09/16 06:52:22;;;;;;;;;14.00;10.33;;;;;21.15;59.36;100610.63;5072681;28;45566;-69
2023/09/16 06:54:48;;;;;;;;;12.00;9.00;;;;;21.10;59.53;100592.19;5077213;28;45380;-69
2023/09/16 06:57:15;;;;;;;;;15.33;11.67;;;;;21.28;59.37;100613.59;5075334;28;45534;-69
2023/09/16 06:59:40;;;;;;;;;13.00;10.33;;;;;21.19;59.59;100614.88;5057426;27;45950;-68
2023/09/16 07:02:06;;;;;;;;;13.33;11.33;;;;;21.01;59.69;100584.59;5058685;27;45411;-68
2023/09/16 07:04:36;;;;;;;;;36.33;30.67;;;;;20.88;60.17;100562.09;5059346;27;45430;-67
2023/09/16 07:07:02;;;;;;;;;19.67;18.00;;;;;21.18;60.06;100598.03;5072177;27;45439;-68
2023/09/16 07:09:28;;;;;;;;;15.33;12.00;;;;;21.41;60.43;100595.31;5058577;27;45429;-66
2023/09/16 07:11:53;;;;;;;;;11.33;11.33;;;;;21.50;59.18;100593.09;5057361;27;45505;-70
2023/09/16 07:14:19;;;;;;;;;12.67;11.00;;;;;21.68;59.46;100591.38;5057689;27;45496;-70
2023/09/16 07:16:44;;;;;;;;;11.33;11.33;;;;;21.73;58.99;100591.16;5059409;27;45392;-69
2023/09/16 07:19:10;;;;;;;;;11.33;10.67;;;;;21.90;58.58;100599.25;5076620;28;45969;-69
2023/09/16 07:21:35;;;;;;;;;17.33;14.00;;;;;21.98;57.47;100589.06;5079322;28;45579;-75
2023/09/16 07:24:01;;;;;;;;;16.00;14.67;;;;;22.00;57.23;100599.66;5077453;27;45443;-69
2023/09/16 07:26:30;;;;;;;;;15.33;13.33;;;;;21.82;57.80;100606.72;5078529;28;45267;-70
2023/09/16 07:28:57;;;;;;;;;15.00;14.33;;;;;21.71;58.66;100607.25;5077911;27;46066;-69
2023/09/16 07:31:23;;;;;;;;;21.00;19.67;;;;;21.62;58.27;100602.31;5077588;28;45448;-70
2023/09/16 07:33:49;;;;;;;;;12.33;12.33;;;;;21.61;58.10;100595.25;5078158;27;45479;-69
2023/09/16 07:36:15;;;;;;;;;13.00;13.00;;;;;21.71;58.53;100606.34;5077624;28;45537;-69
2023/09/16 07:38:40;;;;;;;;;18.00;15.33;;;;;21.71;58.67;100612.56;5077764;28;45455;-70
2023/09/16 07:41:06;;;;;;;;;16.67;14.33;;;;;21.46;59.08;100580.84;5078817;28;45477;-68
2023/09/16 07:43:31;;;;;;;;;13.00;13.00;;;;;21.74;59.02;100608.88;5073361;27;45603;-69
2023/09/16 07:45:58;;;;;;;;;16.00;14.33;;;;;21.68;58.96;100607.34;5069098;28;45517;-69
2023/09/16 07:48:24;;;;;;;;;12.67;11.33;;;;;21.84;58.84;100606.66;5075963;28;48126;-69
2023/09/16 07:50:50;;;;;;;;;14.33;11.67;;;;;22.03;58.22;100624.38;5092765;27;45281;-70
2023/09/16 07:53:20;;;;;;;;;12.00;12.00;;;;;22.21;57.78;100628.00;5057432;27;45324;-70
2023/09/16 07:55:46;;;;;;;;;14.67;12.33;;;;;22.18;57.49;100595.22;5070192;28;45599;-69
2023/09/16 07:58:17;;;;;;;;;14.33;14.00;;;;;22.33;57.40;100618.53;5089618;27;46323;-69
2023/09/16 08:00:43;;;;;;;;;22.33;19.33;;;;;21.98;57.53;100578.41;5057657;27;45416;-69
2023/09/16 08:03:09;;;;;;;;;20.33;18.00;;;;;21.85;58.19;100587.03;5062353;27;45528;-69
2023/09/16 08:05:34;;;;;;;;;18.33;13.00;;;;;22.16;58.43;100637.13;5056985;28;45483;-70
2023/09/16 08:08:03;;;;;;;;;17.33;17.33;;;;;21.91;57.67;100592.97;5055031;27;45592;-69
2023/09/16 08:10:28;;;;;;;;;14.00;13.00;;;;;22.17;58.00;100629.06;5055204;27;45576;-69
2023/09/16 08:12:54;;;;;;;;;15.33;15.33;;;;;22.18;57.55;100630.75;5056845;27;45530;-69
2023/09/16 08:15:19;;;;;;;;;16.67;14.00;;;;;22.16;57.81;100629.13;5061920;27;45485;-69
2023/09/16 08:17:45;;;;;;;;;16.33;15.00;;;;;22.14;57.68;100621.22;5063361;28;45412;-69
2023/09/16 08:20:10;;;;;;;;;13.67;13.67;;;;;22.11;57.75;100612.47;5076694;28;45458;-69
2023/09/16 08:22:36;;;;;;;;;13.33;12.00;;;;;22.39;57.21;100628.03;5077719;28;45444;-70
2023/09/16 08:25:03;;;;;;;;;19.00;15.33;;;;;22.48;56.97;100622.25;5076534;28;45460;-70
2023/09/16 08:27:30;;;;;;;;;14.67;14.67;;;;;22.34;57.56;100582.91;5075660;27;46336;-70
2023/09/16 08:29:55;;;;;;;;;15.00;14.00;;;;;22.78;56.88;100627.00;5078950;28;45410;-70
2023/09/16 08:32:28;;;;;;;;;14.00;12.33;;;;;22.85;55.94;100610.59;5080647;28;45377;-70
2023/09/16 08:34:55;;;;;;;;;13.33;13.00;;;;;23.06;55.96;100615.78;5078847;28;45521;-71
2023/09/16 08:37:21;;;;;;;;;11.00;11.00;;;;;23.19;55.40;100602.69;5077827;28;45729;-73
2023/09/16 08:39:47;;;;;;;;;14.67;12.67;;;;;23.31;54.97;100599.34;5077815;28;45417;-71
2023/09/16 08:42:37;;;;;;;;;13.33;11.33;;;;;23.47;55.13;100620.78;5077544;27;45448;-71
2023/09/16 08:45:05;;;;;;;;;14.33;14.00;;;;;23.42;54.43;100617.47;5078505;28;45447;-71
2023/09/16 08:47:43;;;;;;;;;13.00;13.00;;;;;23.49;54.44;100619.75;5077327;27;46457;-72
2023/09/16 08:50:13;;;;;;;;;10.67;9.00;;;;;23.33;54.75;100607.31;5076884;27;45413;-72
2023/09/16 08:52:46;;;;;;;;;11.33;11.00;;;;;23.60;53.99;100620.97;5077494;27;45484;-73
2023/09/16 08:55:13;;;;;;;;;11.67;11.67;;;;;23.57;54.22;100597.09;5073723;28;45603;-72
2023/09/16 08:57:47;;;;;;;;;16.67;14.33;;;;;23.61;53.77;100615.56;5072903;28;46389;-71
2023/09/16 09:00:14;;;;;;;;;15.00;13.33;;;;;23.50;53.90;100610.78;5078291;28;45467;-73
2023/09/16 09:02:40;;;;;;;;;18.00;15.67;;;;;23.64;53.69;100625.22;5076467;28;45462;-73
2023/09/16 09:05:07;;;;;;;;;12.33;12.00;;;;;23.57;53.73;100615.81;5076612;28;45685;-71
2023/09/16 09:07:37;;;;;;;;;14.33;11.00;;;;;23.68;53.58;100627.66;5076470;27;46373;-72
2023/09/16 09:10:04;;;;;;;;;13.33;13.33;;;;;23.79;53.59;100621.72;5077239;27;45434;-72
2023/09/16 09:12:32;;;;;;;;;17.33;12.00;;;;;23.79;53.02;100607.50;5078994;27;45318;-73
2023/09/16 09:15:03;;;;;;;;;15.00;15.00;;;;;23.96;52.78;100628.81;5079094;28;45363;-72
2023/09/16 09:17:41;;;;;;;;;14.67;14.67;;;;;23.75;53.35;100619.31;5065179;28;46242;-72
2023/09/16 09:20:21;;;;;;;;;17.67;16.33;;;;;23.95;53.21;100628.91;5079990;28;45498;-70
2023/09/16 09:22:49;;;;;;;;;12.00;12.00;;;;;23.97;52.61;100598.47;5078775;27;45452;-71
2023/09/16 09:25:20;;;;;;;;;16.33;13.67;;;;;24.37;51.92;100627.44;5079907;27;45420;-71
2023/09/16 09:27:47;;;;;;;;;14.67;12.33;;;;;24.33;51.98;100616.91;5079273;27;46282;-72
2023/09/16 09:30:13;;;;;;;;;13.00;11.33;;;;;24.41;52.49;100632.53;5078082;28;45388;-72
2023/09/16 09:32:44;;;;;;;;;14.33;11.33;;;;;24.34;51.36;100604.38;5079036;27;45417;-72
2023/09/16 09:35:11;;;;;;;;;14.67;11.33;;;;;24.39;51.61;100604.13;5079497;28;45927;-73
2023/09/16 09:37:38;;;;;;;;;12.67;12.67;;;;;24.54;51.48;100616.66;5078862;28;45504;-72
2023/09/16 09:40:12;;;;;;;;;14.33;13.33;;;;;24.55;51.36;100627.25;5077777;28;45539;-72
2023/09/16 09:42:41;;;;;;;;;13.00;11.00;;;;;24.67;50.96;100623.00;5076574;28;45403;-72
2023/09/16 09:45:07;;;;;;;;;13.67;13.67;;;;;24.72;51.29;100620.91;5079342;27;45381;-72
2023/09/16 09:47:34;;;;;;;;;14.67;11.33;;;;;24.68;50.22;100602.47;5079116;27;46433;-73
2023/09/16 09:50:04;;;;;;;;;16.67;13.00;;;;;24.73;50.60;100616.44;5079797;28;45346;-71
2023/09/16 09:52:31;;;;;;;;;15.67;15.00;;;;;24.71;50.74;100610.31;5079621;28;45392;-71
2023/09/16 09:54:57;;;;;;;;;15.00;13.67;;;;;24.97;50.62;100598.03;5079676;28;45207;-73
2023/09/16 09:57:25;;;;;;;;;12.33;12.33;;;;;25.11;50.10;100598.06;5075134;27;47851;-71
2023/09/16 09:59:50;;;;;;;;;13.33;12.00;;;;;25.05;49.50;100560.91;5077759;28;45164;-72
2023/09/16 10:02:16;;;;;;;;;13.00;12.67;;;;;25.40;49.53;100598.13;5081866;28;46268;-72
2023/09/16 10:04:41;;;;;;;;;12.67;9.67;;;;;25.52;49.65;100591.13;5081301;28;45857;-73
2023/09/16 10:07:07;;;;;;;;;13.25;10.50;;;;;25.60;48.59;100589.69;5078822;27;46015;-71
2023/09/16 10:09:33;;;;;;;;;12.00;12.00;;;;;25.65;48.44;100597.47;5079355;28;45480;-71
2023/09/16 10:12:03;;;;;;;;;16.33;13.33;;;;;25.66;48.60;100590.28;5079154;28;45393;-71
2023/09/16 10:14:30;;;;;;;;;13.67;13.00;;;;;25.73;48.98;100600.50;5079258;27;45611;-72
2023/09/16 10:16:55;;;;;;;;;13.50;11.50;;;;;25.60;48.51;100578.09;5063905;27;45504;-71
2023/09/16 10:19:21;;;;;;;;;9.00;9.00;;;;;25.72;48.35;100587.19;5079022;27;45257;-70
2023/09/16 10:21:48;;;;;;;;;14.00;11.00;;;;;25.67;48.70;100584.78;5080329;28;45484;-72
2023/09/16 10:24:16;;;;;;;;;12.00;12.00;;;;;25.68;48.67;100575.81;5074203;27;45604;-70
2023/09/16 10:26:42;;;;;;;;;12.50;10.25;;;;;25.80;48.22;100556.22;5069016;28;45427;-73
2023/09/16 10:29:12;;;;;;;;;12.00;11.25;;;;;26.11;48.13;100586.47;5078855;28;45396;-71
2023/09/16 10:31:42;;;;;;;;;17.00;16.33;;;;;26.19;47.69;100588.66;5077295;28;45254;-71
2023/09/16 10:34:09;;;;;;;;;18.00;18.00;;;;;26.01;47.37;100566.56;5076098;28;45651;-69
2023/09/16 10:36:36;;;;;;;;;18.33;16.33;;;;;25.51;47.76;100477.66;5067387;28;45387;-73
2023/09/16 10:39:03;;;;;;;;;20.00;15.00;;;;;26.07;46.97;100560.78;5074493;27;45417;-70
2023/09/16 10:41:30;;;;;;;;;19.67;17.33;;;;;26.23;47.27;100601.78;5078820;27;45492;-70
2023/09/16 10:43:58;;;;;;;;;10.50;10.50;;;;;26.23;47.07;100598.22;5078764;27;45551;-69
2023/09/16 10:46:25;;;;;;;;;14.50;11.50;;;;;25.96;46.66;100544.53;5073792;28;45400;-70
2023/09/16 10:48:51;;;;;;;;;10.50;10.50;;;;;25.85;46.38;100510.31;5071582;28;45516;-70
2023/09/16 10:51:23;;;;;;;;;10.25;10.25;;;;;26.41;46.53;100594.34;5079972;28;45453;-69
2023/09/16 10:54:09;;;;;;;;;11.25;10.00;;;;;26.49;46.68;100577.69;5078827;28;45534;-71
2023/09/16 10:56:43;;;;;;;;;14.00;11.25;;;;;26.81;46.13;100588.09;5075356;27;47585;-68
2023/09/16 10:59:13;;;;;;;;;16.00;11.75;;;;;26.80;45.68;100594.47;5070765;28;45393;-69
2023/09/16 11:02:04;;;;;;;;;14.75;14.50;;;;;26.85;45.27;100603.06;5081748;27;45444;-68
2023/09/16 11:04:35;;;;;;;;;10.75;10.75;;;;;26.91;45.62;100594.59;5066863;27;45359;-68
2023/09/16 11:07:02;;;;;;;;;11.50;10.50;;;;;26.92;45.87;100585.56;5063142;27;45527;-70
2023/09/16 11:09:28;;;;;;;;;12.25;10.75;;;;;26.80;45.52;100583.72;5061332;27;45485;-71
2023/09/16 11:11:56;;;;;;;;;12.50;12.50;;;;;26.67;45.72;100599.78;5066096;27;45537;-69
2023/09/16 11:14:28;;;;;;;;;12.75;8.25;;;;;26.73;46.04;100587.78;5066955;27;45607;-70